TimeCST,TemperatureF,Dew PointF,Humidity,Sea Level PressureIn,VisibilityMPH,Wind Direction,Wind SpeedMPH,Gust SpeedMPH,PrecipitationIn,Events,Conditions,WindDirDegrees,DateUTC
12:15 AM,35.6,32.9,90,29.71,5.0,NW,8.1,-,N/A,,Overcast,320,2012-12-16 06:15:00
12:55 AM,35.6,32.7,89,29.71,7.0,NW,9.2,-,N/A,,Overcast,320,2012-12-16 06:55:00
1:15 AM,35.2,32.9,91,29.72,5.0,NW,6.9,-,N/A,,Overcast,320,2012-12-16 07:15:00
1:35 AM,35.1,32.5,91,29.72,5.0,NW,5.8,-,N/A,,Overcast,310,2012-12-16 07:35:00
1:55 AM,34.9,32.4,91,29.72,5.0,Calm,Calm,-,N/A,,Overcast,0,2012-12-16 07:55:00
2:15 AM,34.9,32.5,91,29.72,5.0,NW,4.6,-,N/A,,Overcast,320,2012-12-16 08:15:00
2:55 AM,34.9,32.9,92,29.73,5.0,NW,8.1,-,N/A,,Overcast,310,2012-12-16 08:55:00
3:15 AM,34.7,32.9,93,29.73,4.0,NW,6.9,-,N/A,,Overcast,320,2012-12-16 09:15:00
3:35 AM,34.3,32.5,93,29.73,4.0,NW,12.7,-,N/A,,Overcast,310,2012-12-16 09:35:00
3:55 AM,33.8,32.0,93,29.73,5.0,NW,10.4,-,N/A,,Overcast,320,2012-12-16 09:55:00
4:15 AM,33.3,32.0,95,29.73,4.0,NNW,8.1,-,N/A,,Overcast,330,2012-12-16 10:15:00
4:35 AM,32.9,31.8,96,29.74,4.0,NW,4.6,-,N/A,,Overcast,320,2012-12-16 10:35:00
4:55 AM,32.9,31.6,95,29.74,4.0,NNW,8.1,-,N/A,,Overcast,330,2012-12-16 10:55:00
5:15 AM,32.5,31.5,96,29.74,4.0,NNW,5.8,-,N/A,,Overcast,340,2012-12-16 11:15:00
5:35 AM,32.9,31.6,95,29.75,4.0,WNW,5.8,-,N/A,,Overcast,300,2012-12-16 11:35:00
5:55 AM,32.4,30.2,92,29.76,5.0,WNW,3.5,-,N/A,,Overcast,300,2012-12-16 11:55:00
6:15 AM,32.2,29.8,91,29.76,5.0,NW,4.6,-,N/A,,Overcast,320,2012-12-16 12:15:00
6:35 AM,32.2,29.8,91,29.76,5.0,NW,5.8,-,N/A,,Overcast,320,2012-12-16 12:35:00
6:55 AM,32.0,29.5,90,29.76,7.0,NW,6.9,-,N/A,,Overcast,310,2012-12-16 12:55:00
7:15 AM,32.0,29.3,90,29.76,7.0,NNW,5.8,-,N/A,,Overcast,330,2012-12-16 13:15:00
7:35 AM,31.3,28.2,88,29.76,7.0,NNW,5.8,-,N/A,,Overcast,330,2012-12-16 13:35:00
7:55 AM,31.1,28.0,88,29.76,7.0,NNW,8.1,-,N/A,,Mostly Cloudy,330,2012-12-16 13:55:00
8:15 AM,31.5,27.5,85,29.76,7.0,NNW,6.9,-,N/A,,Mostly Cloudy,330,2012-12-16 14:15:00
8:35 AM,31.8,28.0,86,29.76,7.0,NW,6.9,-,N/A,,Overcast,320,2012-12-16 14:35:00
8:55 AM,32.0,28.0,85,29.77,10.0,NW,6.9,-,N/A,,Overcast,320,2012-12-16 14:55:00
9:15 AM,32.2,27.9,84,29.77,10.0,NNW,9.2,-,N/A,,Overcast,340,2012-12-16 15:15:00
9:35 AM,32.5,27.7,82,29.77,10.0,NW,9.2,-,N/A,,Overcast,320,2012-12-16 15:35:00
9:55 AM,32.2,27.9,84,29.77,7.0,NNW,5.8,-,N/A,Snow,Light Snow,340,2012-12-16 15:55:00
10:15 AM,32.9,28.2,83,29.77,7.0,NNW,6.9,-,N/A,,Overcast,340,2012-12-16 16:15:00
10:35 AM,32.9,28.0,82,29.77,10.0,NNW,8.1,-,N/A,,Overcast,340,2012-12-16 16:35:00
10:55 AM,32.2,27.9,84,29.77,7.0,NNW,5.8,-,N/A,,Overcast,340,2012-12-16 16:55:00
11:15 AM,32.4,27.9,83,29.77,10.0,NNW,4.6,-,N/A,,Overcast,340,2012-12-16 17:15:00
11:35 AM,32.9,28.4,84,29.75,7.0,NNW,5.8,-,N/A,,Overcast,330,2012-12-16 17:35:00
11:55 AM,32.7,28.6,85,29.75,7.0,NNW,8.1,-,N/A,,Overcast,330,2012-12-16 17:55:00
12:35 PM,32.5,29.1,87,29.74,7.0,NW,4.6,-,N/A,,Overcast,320,2012-12-16 18:35:00
12:55 PM,32.2,29.3,89,29.74,7.0,WNW,5.8,-,N/A,,Overcast,300,2012-12-16 18:55:00
1:15 PM,32.0,29.3,90,29.73,5.0,NW,5.8,-,N/A,,Overcast,320,2012-12-16 19:15:00
1:35 PM,32.2,29.5,90,29.73,5.0,NNW,5.8,-,N/A,,Overcast,330,2012-12-16 19:35:00
1:55 PM,32.4,29.8,90,29.72,5.0,NNW,4.6,-,N/A,,Overcast,330,2012-12-16 19:55:00
2:15 PM,32.7,29.5,88,29.72,7.0,NNW,5.8,-,N/A,,Overcast,330,2012-12-16 20:15:00
2:35 PM,33.1,29.7,87,29.72,5.0,North,5.8,-,N/A,,Overcast,350,2012-12-16 20:35:00
2:55 PM,32.9,29.5,87,29.72,7.0,NNW,5.8,-,N/A,,Overcast,330,2012-12-16 20:55:00
3:15 PM,32.5,29.5,88,29.73,7.0,NNW,5.8,-,N/A,,Overcast,340,2012-12-16 21:15:00
3:35 PM,32.2,29.7,90,29.74,5.0,NW,5.8,-,N/A,,Overcast,320,2012-12-16 21:35:00
3:55 PM,32.0,30.0,92,29.75,4.0,NNW,5.8,-,N/A,,Overcast,340,2012-12-16 21:55:00
4:15 PM,32.0,29.3,90,29.76,7.0,NNW,6.9,-,N/A,,Overcast,340,2012-12-16 22:15:00
4:35 PM,32.0,29.3,90,29.76,5.0,North,3.5,-,N/A,,Overcast,350,2012-12-16 22:35:00
4:55 PM,32.0,29.1,89,29.77,7.0,NNW,3.5,-,N/A,,Overcast,340,2012-12-16 22:55:00
5:15 PM,32.0,29.3,90,29.76,7.0,North,5.8,-,N/A,,Overcast,360,2012-12-16 23:15:00
5:35 PM,32.0,29.3,90,29.78,7.0,NW,4.6,-,N/A,,Overcast,320,2012-12-16 23:35:00
5:55 PM,32.0,29.7,91,29.78,7.0,NNW,3.5,-,N/A,,Overcast,340,2012-12-16 23:55:00
6:15 PM,32.0,29.3,90,29.78,7.0,North,4.6,-,N/A,,Overcast,350,2012-12-17 00:15:00
6:35 PM,32.0,29.7,91,29.78,7.0,North,3.5,-,N/A,,Overcast,350,2012-12-17 00:35:00
6:55 PM,32.0,30.0,92,29.78,5.0,Calm,Calm,-,N/A,,Overcast,0,2012-12-17 00:55:00
7:15 PM,32.0,29.8,92,29.79,5.0,Calm,Calm,-,N/A,,Overcast,0,2012-12-17 01:15:00
7:35 PM,32.0,29.7,91,29.80,7.0,Calm,Calm,-,N/A,,Overcast,0,2012-12-17 01:35:00
7:55 PM,32.0,29.3,90,29.80,7.0,Calm,Calm,-,N/A,,Overcast,0,2012-12-17 01:55:00
8:15 PM,32.0,29.8,92,29.79,7.0,Calm,Calm,-,N/A,,Overcast,0,2012-12-17 02:15:00
8:35 PM,32.0,29.7,91,29.79,7.0,Calm,Calm,-,N/A,,Overcast,0,2012-12-17 02:35:00
8:55 PM,32.0,29.5,90,29.79,7.0,Calm,Calm,-,N/A,,Overcast,0,2012-12-17 02:55:00
9:15 PM,31.8,29.3,90,29.78,7.0,NNE,4.6,-,N/A,,Overcast,30,2012-12-17 03:15:00
9:35 PM,31.8,29.3,90,29.79,7.0,NNE,3.5,-,N/A,,Overcast,30,2012-12-17 03:35:00
9:55 PM,31.6,29.1,90,29.78,7.0,Calm,Calm,-,N/A,,Overcast,0,2012-12-17 03:55:00
10:15 PM,31.8,28.9,89,29.79,7.0,Calm,Calm,-,N/A,,Overcast,0,2012-12-17 04:15:00
10:35 PM,31.8,28.9,89,29.80,7.0,WNW,3.5,-,N/A,,Overcast,300,2012-12-17 04:35:00
10:55 PM,31.6,29.1,90,29.79,5.0,NW,3.5,-,N/A,,Overcast,320,2012-12-17 04:55:00
11:15 PM,31.1,29.1,92,29.79,5.0,Calm,Calm,-,N/A,,Overcast,0,2012-12-17 05:15:00
11:35 PM,31.1,29.1,92,29.79,5.0,Calm,Calm,-,N/A,,Overcast,0,2012-12-17 05:35:00
11:55 PM,31.1,29.3,93,29.79,5.0,Calm,Calm,-,N/A,,Overcast,0,2012-12-17 05:55:00